Buoy 46770

sailwx.info

Track history (hours):
 
Tides and Currents Weather Stations Pressure Air Temp Water Temp Dewpoint Dewpoint Depression Visibility Wind Speed Wind Dir Waves Ship Positions

Drifting buoy 46770

Last reported at 2016-Jun-25 01:00 UTC. Time now 2016-Jun-25 03:32 UTC.
Position N 40°08' W 152°58'.

Barometer 1032.1 mb
Water temperature 15.7 ° C

Date/timePositionNaut miles runAvg speedWind from/ knotsBaromVisibWave heightAir tempDewpointWater temp
2016-Jun-25 01:00N 40°08' W 152°58'0 0.1 1032.1 15.7
2016-Jun-25 00:00N 40°08' W 152°58'1 0.7 1032.5 15.5
2016-Jun-24 23:00N 40°09' W 152°58'0 0.4 1032.7 15.4
2016-Jun-24 22:00N 40°09' W 152°59'1 0.3 1033.2 15.3
2016-Jun-24 20:00N 40°09' W 152°60'0 0.0 1033.7 15.0
2016-Jun-24 18:00N 40°09' W 152°60'0 0.5 1033.7 14.9
2016-Jun-24 17:00N 40°09' W 153°00'1 0.9 1033.7 14.8
2016-Jun-24 16:00N 40°09' W 152°59'0 0.2 1033.9 14.7
2016-Jun-24 15:00N 40°09' W 152°59'1 0.7 1033.7 14.7
2016-Jun-24 14:00N 40°10' W 152°59'1 0.6 1033.8 14.7
2016-Jun-24 13:00N 40°09' W 152°59'1 0.7 1033.9 14.7
2016-Jun-24 12:00N 40°10' W 152°59'0 0.0 1033.9 14.7
2016-Jun-24 11:00N 40°10' W 152°59'1 0.5 1034.3 14.8
2016-Jun-24 08:00N 40°11' W 152°58'0 0.2 1035.4 14.8
2016-Jun-24 07:00N 40°11' W 152°59'1 0.9 1035.4 14.8
2016-Jun-24 06:00N 40°12' W 152°60'0 0.4 1035.3 14.8
2016-Jun-24 05:00N 40°11' W 152°60'1 1.1 1035.3 14.9
2016-Jun-24 04:00N 40°11' W 153°01'1 0.9 1035.0 14.9
2016-Jun-24 03:00N 40°11' W 152°60'0 0.0 1035.0 14.9
2016-Jun-24 02:00N 40°11' W 152°60'1 0.5 1035.1 14.9
2016-Jun-24 01:00N 40°11' W 152°60'0 0.5 1035.4 14.9
2016-Jun-24 00:00N 40°10' W 152°60'0 0.0 1035.7 14.9
2016-Jun-23 23:00N 40°10' W 152°60'1 0.9 1036.0 14.9
2016-Jun-23 22:00N 40°10' W 152°58'2 0.9 1036.2 14.8
2016-Jun-23 20:00N 40°11' W 152°57'0 0.2 1036.5 14.7
2016-Jun-23 18:00N 40°11' W 152°56'1 1.0 1036.2 14.7
2016-Jun-23 17:00N 40°12' W 152°55'1 1.2 1035.9 14.7
2016-Jun-23 16:00N 40°13' W 152°55'1 1.1 1035.7 14.7
2016-Jun-23 15:00N 40°14' W 152°55'0 0.0 1035.6 14.7
2016-Jun-23 14:00N 40°14' W 152°55'1 1.4 1035.3 14.8
2016-Jun-23 13:00N 40°15' W 152°57'0 0.0 1035.4 14.8
2016-Jun-23 12:00N 40°15' W 152°57'1 1.1 1035.9 14.8
2016-Jun-23 11:00N 40°14' W 152°58'0 0.0 1036.2 14.8
2016-Jun-23 09:00N 40°14' W 152°58'0 0.0 1036.8 14.8
2016-Jun-23 08:00N 40°14' W 152°58'0 0.4 1036.9 14.8
2016-Jun-23 07:00N 40°13' W 152°57'1 0.8 1036.9 14.9
2016-Jun-23 06:00N 40°13' W 152°56'0 0.3 1036.8 14.9
2016-Jun-23 05:00N 40°13' W 152°56'1 0.9 1036.6 15.0
2016-Jun-23 04:00N 40°13' W 152°55'1 0.9 1036.6 15.0
2016-Jun-23 03:00N 40°12' W 152°54'1 0.6 1036.9 15.0
2016-Jun-23 02:00N 40°13' W 152°54'1 0.9 1036.9 15.1
2016-Jun-23 01:00N 40°13' W 152°53'1 1.1 1037.1 15.1
2016-Jun-23 00:00N 40°14' W 152°53'2 1.6 1037.4 15.1
2016-Jun-22 23:00N 40°16' W 152°53'0 0.0 1037.7 15.0
2016-Jun-22 21:00N 40°16' W 152°53'1 1.4 1037.9 14.8
2016-Jun-22 20:00N 40°17' W 152°54'0 0.3 1038.2 14.7
2016-Jun-22 19:00N 40°17' W 152°54'1 1.1 1038.2 14.7
2016-Jun-22 18:00N 40°16' W 152°56'0 0.0 1038.2 14.7
2016-Jun-22 17:00N 40°16' W 152°56'0 0.5 1038.1 14.6
2016-Jun-22 16:00N 40°16' W 152°55'0 0.3 1038.1 14.6
2016-Jun-22 15:00N 40°16' W 152°55'1 0.5 1038.1 14.6
2016-Jun-22 14:00N 40°16' W 152°56'0 0.3 1037.9 14.6
2016-Jun-22 13:00N 40°16' W 152°55'1 0.6 1037.8 14.7
2016-Jun-22 12:00N 40°15' W 152°55'2 1.5 1037.7 14.7
2016-Jun-22 11:00N 40°15' W 152°53'1 0.2 1037.9 14.7
2016-Jun-22 07:00N 40°16' W 152°52'0 0.3 1038.3 14.7
2016-Jun-22 06:00N 40°16' W 152°51'1 0.9 1037.9 14.7
2016-Jun-22 05:00N 40°17' W 152°51'0 0.0 1037.8 14.8
2016-Jun-22 04:00N 40°17' W 152°51'0 0.4 1037.7 14.8
2016-Jun-22 03:00N 40°17' W 152°51'1 1.1 1037.9 14.9
2016-Jun-22 02:00N 40°18' W 152°52'1 0.9 1038.2 15.0
2016-Jun-22 01:00N 40°18' W 152°53'0 0.0 1038.5 15.1
2016-Jun-22 00:00N 40°18' W 152°53'0 0.0 1038.7 15.1
2016-Jun-21 23:00N 40°18' W 152°53'1 0.6 1038.8 15.0
2016-Jun-21 21:00N 40°16' W 152°53'0 0.2 1038.9 14.7
2016-Jun-21 19:00N 40°16' W 152°53'0 0.5 1038.8 14.4
2016-Jun-21 18:00N 40°16' W 152°53'1 0.7 1038.9 14.4
2016-Jun-21 17:00N 40°16' W 152°52'1 1.2 1038.8 14.3
2016-Jun-21 16:00N 40°16' W 152°50'0 0.0 1038.3 14.3
2016-Jun-21 15:00N 40°16' W 152°50'1 0.3 1038.0 14.3
2016-Jun-21 13:00N 40°17' W 152°50'0 0.0 1037.7 14.3
2016-Jun-21 11:00N 40°17' W 152°50'1 0.5 1037.3 14.3
2016-Jun-21 08:00N 40°18' W 152°51'0 0.1 1037.7 14.4
2016-Jun-21 07:00N 40°18' W 152°51'1 0.6 1037.6 14.4
2016-Jun-21 06:00N 40°18' W 152°51'1 0.7 1036.9 14.4
2016-Jun-21 05:00N 40°18' W 152°51'1 0.5 1036.7 14.5
2016-Jun-21 04:00N 40°17' W 152°52'1 0.7 1036.4 14.6
2016-Jun-21 03:00N 40°17' W 152°52'0 0.2 1036.2 14.6
2016-Jun-21 02:00N 40°17' W 152°52'1 0.9 1036.1 14.5
2016-Jun-21 01:00N 40°16' W 152°51'0 0.4 1036.3 14.5
2016-Jun-21 00:00N 40°16' W 152°50'1 1.5 1036.2 14.4
2016-Jun-20 23:00N 40°16' W 152°49'1 0.3 1036.3 14.4
2016-Jun-20 21:00N 40°16' W 152°48'1 0.6 1036.2 14.2
2016-Jun-20 19:00N 40°17' W 152°47'0 0.0 1035.7 14.1
2016-Jun-20 18:00N 40°17' W 152°47'0 0.0 1035.6 14.1
2016-Jun-20 17:00N 40°17' W 152°47'0 0.5 1035.2 14.0
2016-Jun-20 16:00N 40°18' W 152°48'1 0.5 1034.7 14.0
2016-Jun-20 15:00N 40°18' W 152°47'1 0.5 1034.3 14.0
2016-Jun-20 14:00N 40°18' W 152°48'0 0.4 1034.0 14.0
2016-Jun-20 13:00N 40°18' W 152°48'2 1.9 1033.6 14.0
2016-Jun-20 12:00N 40°17' W 152°50'2 2.1 1033.7 14.0
2016-Jun-20 11:00N 40°18' W 152°48'2 0.6 1033.4 14.0
2016-Jun-20 08:00N 40°17' W 152°50'1 0.7 1033.6 14.0
2016-Jun-20 07:00N 40°17' W 152°50'1 0.5 1033.3 14.0
2016-Jun-20 06:00N 40°16' W 152°50'1 1.1 1032.7 14.1
2016-Jun-20 05:00N 40°16' W 152°48'1 0.8 1032.3 14.1
2016-Jun-20 04:00N 40°16' W 152°47'1 0.8 1031.6 14.1
2016-Jun-20 03:00N 40°15' W 152°47'2 1.8 1031.7 14.1
2016-Jun-20 02:00N 40°17' W 152°45'0 0.0 1031.5 14.1
2016-Jun-20 01:00N 40°17' W 152°45'3 0.9 1031.4 14.1
2016-Jun-19 21:00N 40°20' W 152°45'1 1.0 1030.5 13.9
2016-Jun-19 20:00N 40°21' W 152°46'0 0.0 1030.4 13.8
2016-Jun-19 19:00N 40°21' W 152°46'1 0.4 1030.0 13.8
2016-Jun-19 17:00N 40°21' W 152°47'1 0.7 1029.3 13.7
2016-Jun-19 16:00N 40°21' W 152°48'1 0.5 1028.6 13.7
2016-Jun-19 14:00N 40°20' W 152°49'1 0.6 1027.3 13.6
2016-Jun-19 13:00N 40°20' W 152°49'2 1.5 1026.8 13.6
2016-Jun-19 12:00N 40°20' W 152°47'1 1.5 1026.7 13.6
2016-Jun-19 11:00N 40°20' W 152°49'3 1.0 1026.8 13.6
2016-Jun-19 08:00N 40°21' W 152°45'0 0.0 1026.5 13.6
2016-Jun-19 07:00N 40°21' W 152°45'0 0.1 1026.1 13.6
2016-Jun-19 06:00N 40°21' W 152°45'1 1.0 1025.3 13.6
2016-Jun-19 05:00N 40°22' W 152°45'2 1.9 1025.3 13.6
2016-Jun-19 04:00N 40°24' W 152°46'0 0.1 1024.6 13.6
2016-Jun-19 03:00N 40°24' W 152°46'1 1.1 1024.1 13.6
2016-Jun-19 02:00N 40°24' W 152°47'1 0.7 1024.0 13.6
2016-Jun-19 01:00N 40°25' W 152°48'1 0.8 1024.0 13.6
2016-Jun-19 00:00N 40°25' W 152°49'0 0.0 1023.8 13.6
2016-Jun-18 23:00N 40°25' W 152°49'0 0.0 1023.8 13.5
2016-Jun-18 22:00N 40°25' W 152°49'2 0.8 1023.7 13.4
2016-Jun-18 20:00N 40°25' W 152°51'0 0.2 1023.5 13.3
2016-Jun-18 18:00N 40°24' W 152°51'0 0.3 1023.1 13.2
2016-Jun-18 17:00N 40°24' W 152°51'0 0.1 1022.6 13.2
2016-Jun-18 16:00N 40°24' W 152°51'1 0.7 1022.1 13.2
2016-Jun-18 15:00N 40°24' W 152°50'0 0.1 1021.9 13.2
2016-Jun-18 14:00N 40°24' W 152°50'1 0.9 1021.5 13.2
2016-Jun-18 13:00N 40°25' W 152°49'4 4.2 1021.3 13.2
2016-Jun-18 12:00N 40°29' W 152°48'0 0.0 1021.4 13.3
2016-Jun-18 08:00N 40°29' W 152°48'1 1.4 1021.8 13.6
2016-Jun-18 07:00N 40°31' W 152°49'1 1.2 1021.5 13.6
2016-Jun-18 06:00N 40°31' W 152°50'1 0.9 1021.2 13.7
2016-Jun-18 05:00N 40°31' W 152°51'1 0.6 1021.2 13.7
2016-Jun-18 04:00N 40°31' W 152°52'1 0.5 1021.0 13.7
2016-Jun-18 03:00N 40°31' W 152°52'0 0.2 1021.4 13.8
2016-Jun-18 02:00N 40°31' W 152°52'0 0.0 1022.1 13.8
2016-Jun-18 01:00N 40°31' W 152°52'2 1.6 1023.0 13.8
2016-Jun-18 00:00N 40°31' W 152°54'0 0.3 1023.8 13.8
2016-Jun-17 23:00N 40°31' W 152°54'0 0.0 1024.6 13.8
2016-Jun-17 22:00N 40°31' W 152°54'0 0.4 1025.5 13.8
2016-Jun-17 21:00N 40°31' W 152°54'1 0.9 1026.3 13.7
2016-Jun-17 20:00N 40°32' W 152°54'1 1.5 1026.9 13.7
2016-Jun-17 19:00N 40°34' W 152°55'1 0.4 1027.6 13.7
2016-Jun-17 17:00N 40°34' W 152°56'0 0.1 1027.7 13.6
2016-Jun-17 16:00N 40°34' W 152°56'1 0.8 1028.2 13.6
2016-Jun-17 15:00N 40°34' W 152°57'0 0.4 1028.2 13.6
2016-Jun-17 14:00N 40°35' W 152°57'1 1.2 1028.3 13.6
2016-Jun-17 13:00N 40°35' W 152°59'2 1.7 1028.6 13.7
2016-Jun-17 12:00N 40°34' W 153°00'0 0.0 1029.0 13.7
2016-Jun-17 08:00N 40°33' W 153°00'1 0.7 1030.4 13.8
2016-Jun-17 07:00N 40°34' W 152°60'0 0.0 1030.7 13.8
2016-Jun-17 06:00N 40°34' W 152°60'1 1.4 1030.5 13.8
2016-Jun-17 05:00N 40°34' W 152°58'1 0.5 1030.5 13.8
2016-Jun-17 04:00N 40°34' W 152°57'1 0.5 1030.2 13.8
2016-Jun-17 03:00N 40°34' W 152°58'1 1.4 1030.1 13.8
2016-Jun-17 02:00N 40°36' W 152°58'1 0.9 1030.1 13.8
2016-Jun-17 01:00N 40°36' W 152°57'0 0.1 1030.3 13.8
2016-Jun-17 00:00N 40°36' W 152°58'2 0.8 1030.4 13.7
2016-Jun-16 22:00N 40°38' W 152°59'0 0.0 1030.4 13.7
2016-Jun-16 21:00N 40°38' W 152°59'2 0.5 1030.5 13.6
2016-Jun-16 17:00N 40°38' W 153°01'0 0.4 1030.5 13.5
2016-Jun-16 16:00N 40°38' W 153°02'0 0.2 1030.0 13.5
2016-Jun-16 14:00N 40°38' W 153°01'2 1.8 1029.8 13.5
2016-Jun-16 13:00N 40°40' W 153°02'0 0.0 1030.0 13.4
2016-Jun-16 08:00N 40°40' W 153°02'0 0.5 1031.4 13.4
2016-Jun-16 07:00N 40°41' W 153°02'1 0.5 1031.2 13.5
2016-Jun-16 06:00N 40°41' W 153°02'0 0.3 1031.5 13.5
2016-Jun-16 05:00N 40°41' W 153°02'0 0.3 1031.1 13.5
2016-Jun-16 04:00N 40°41' W 153°03'0 0.0 1031.0 13.5
2016-Jun-16 03:00N 40°41' W 153°03'1 0.6 1031.1 13.5
2016-Jun-16 01:00N 40°41' W 153°04'0 0.0 1031.5 13.5
2016-Jun-16 00:00N 40°41' W 153°04'1 0.7 1031.8 13.5
2016-Jun-15 23:00N 40°42' W 153°05'0 0.2 1032.1 13.4
2016-Jun-15 22:00N 40°42' W 153°05'0 0.1 1032.1 13.4
2016-Jun-15 20:00N 40°42' W 153°05'0 0.2 1032.2 13.4
2016-Jun-15 18:00N 40°42' W 153°05'1 0.5 1031.9 13.3
2016-Jun-15 17:00N 40°43' W 153°05'1 0.7 1031.6 13.3
2016-Jun-15 16:00N 40°44' W 153°05'1 0.5 1031.4 13.3
2016-Jun-15 15:00N 40°44' W 153°04'0 0.0 1031.3 13.3
2016-Jun-15 14:00N 40°44' W 153°04'3 0.5 1031.3 13.3
2016-Jun-15 08:00N 40°45' W 153°07'0 0.2 1032.6 13.4
2016-Jun-15 06:00N 40°46' W 153°07'0 0.2 1032.2 13.5
2016-Jun-15 05:00N 40°46' W 153°07'0 0.4 1032.3 13.5
2016-Jun-15 04:00N 40°46' W 153°07'0 0.4 1032.5 13.5
2016-Jun-15 03:00N 40°47' W 153°07'0 0.4 1032.6 13.5
2016-Jun-15 02:00N 40°47' W 153°08'0 0.4 1032.8 13.6
2016-Jun-15 01:00N 40°47' W 153°08'   1033.2 13.6
Track history (hours):
 
Tides and Currents Weather Stations Pressure Air Temp Water Temp Dewpoint Dewpoint Depression Visibility Wind Speed Wind Dir Waves Ship Positions

Drifting buoy 46770

Last reported at 2016-Jun-25 01:00 UTC. Time now 2016-Jun-25 03:32 UTC.
Position N 40°08' W 152°58'.

Barometer 1032.1 mb
Water temperature 15.7 ° C

Date/timePositionNaut miles runAvg speedWind from/ knotsBaromVisibWave heightAir tempDewpointWater temp
2016-Jun-25 01:00N 40°08' W 152°58'0 0.1 1032.1 15.7
2016-Jun-25 00:00N 40°08' W 152°58'1 0.7 1032.5 15.5
2016-Jun-24 23:00N 40°09' W 152°58'0 0.4 1032.7 15.4
2016-Jun-24 22:00N 40°09' W 152°59'1 0.3 1033.2 15.3
2016-Jun-24 20:00N 40°09' W 152°60'0 0.0 1033.7 15.0
2016-Jun-24 18:00N 40°09' W 152°60'0 0.5 1033.7 14.9
2016-Jun-24 17:00N 40°09' W 153°00'1 0.9 1033.7 14.8
2016-Jun-24 16:00N 40°09' W 152°59'0 0.2 1033.9 14.7
2016-Jun-24 15:00N 40°09' W 152°59'1 0.7 1033.7 14.7
2016-Jun-24 14:00N 40°10' W 152°59'1 0.6 1033.8 14.7
2016-Jun-24 13:00N 40°09' W 152°59'1 0.7 1033.9 14.7
2016-Jun-24 12:00N 40°10' W 152°59'0 0.0 1033.9 14.7
2016-Jun-24 11:00N 40°10' W 152°59'1 0.5 1034.3 14.8
2016-Jun-24 08:00N 40°11' W 152°58'0 0.2 1035.4 14.8
2016-Jun-24 07:00N 40°11' W 152°59'1 0.9 1035.4 14.8
2016-Jun-24 06:00N 40°12' W 152°60'0 0.4 1035.3 14.8
2016-Jun-24 05:00N 40°11' W 152°60'1 1.1 1035.3 14.9
2016-Jun-24 04:00N 40°11' W 153°01'1 0.9 1035.0 14.9
2016-Jun-24 03:00N 40°11' W 152°60'0 0.0 1035.0 14.9
2016-Jun-24 02:00N 40°11' W 152°60'1 0.5 1035.1 14.9
2016-Jun-24 01:00N 40°11' W 152°60'0 0.5 1035.4 14.9
2016-Jun-24 00:00N 40°10' W 152°60'0 0.0 1035.7 14.9
2016-Jun-23 23:00N 40°10' W 152°60'1 0.9 1036.0 14.9
2016-Jun-23 22:00N 40°10' W 152°58'2 0.9 1036.2 14.8
2016-Jun-23 20:00N 40°11' W 152°57'0 0.2 1036.5 14.7
2016-Jun-23 18:00N 40°11' W 152°56'1 1.0 1036.2 14.7
2016-Jun-23 17:00N 40°12' W 152°55'1 1.2 1035.9 14.7
2016-Jun-23 16:00N 40°13' W 152°55'1 1.1 1035.7 14.7
2016-Jun-23 15:00N 40°14' W 152°55'0 0.0 1035.6 14.7
2016-Jun-23 14:00N 40°14' W 152°55'1 1.4 1035.3 14.8
2016-Jun-23 13:00N 40°15' W 152°57'0 0.0 1035.4 14.8
2016-Jun-23 12:00N 40°15' W 152°57'1 1.1 1035.9 14.8
2016-Jun-23 11:00N 40°14' W 152°58'0 0.0 1036.2 14.8
2016-Jun-23 09:00N 40°14' W 152°58'0 0.0 1036.8 14.8
2016-Jun-23 08:00N 40°14' W 152°58'0 0.4 1036.9 14.8
2016-Jun-23 07:00N 40°13' W 152°57'1 0.8 1036.9 14.9
2016-Jun-23 06:00N 40°13' W 152°56'0 0.3 1036.8 14.9
2016-Jun-23 05:00N 40°13' W 152°56'1 0.9 1036.6 15.0
2016-Jun-23 04:00N 40°13' W 152°55'1 0.9 1036.6 15.0
2016-Jun-23 03:00N 40°12' W 152°54'1 0.6 1036.9 15.0
2016-Jun-23 02:00N 40°13' W 152°54'1 0.9 1036.9 15.1
2016-Jun-23 01:00N 40°13' W 152°53'1 1.1 1037.1 15.1
2016-Jun-23 00:00N 40°14' W 152°53'2 1.6 1037.4 15.1
2016-Jun-22 23:00N 40°16' W 152°53'0 0.0 1037.7 15.0
2016-Jun-22 21:00N 40°16' W 152°53'1 1.4 1037.9 14.8
2016-Jun-22 20:00N 40°17' W 152°54'0 0.3 1038.2 14.7
2016-Jun-22 19:00N 40°17' W 152°54'1 1.1 1038.2 14.7
2016-Jun-22 18:00N 40°16' W 152°56'0 0.0 1038.2 14.7
2016-Jun-22 17:00N 40°16' W 152°56'0 0.5 1038.1 14.6
2016-Jun-22 16:00N 40°16' W 152°55'0 0.3 1038.1 14.6
2016-Jun-22 15:00N 40°16' W 152°55'1 0.5 1038.1 14.6
2016-Jun-22 14:00N 40°16' W 152°56'0 0.3 1037.9 14.6
2016-Jun-22 13:00N 40°16' W 152°55'1 0.6 1037.8 14.7
2016-Jun-22 12:00N 40°15' W 152°55'2 1.5 1037.7 14.7
2016-Jun-22 11:00N 40°15' W 152°53'1 0.2 1037.9 14.7
2016-Jun-22 07:00N 40°16' W 152°52'0 0.3 1038.3 14.7
2016-Jun-22 06:00N 40°16' W 152°51'1 0.9 1037.9 14.7
2016-Jun-22 05:00N 40°17' W 152°51'0 0.0 1037.8 14.8
2016-Jun-22 04:00N 40°17' W 152°51'0 0.4 1037.7 14.8
2016-Jun-22 03:00N 40°17' W 152°51'1 1.1 1037.9 14.9
2016-Jun-22 02:00N 40°18' W 152°52'1 0.9 1038.2 15.0
2016-Jun-22 01:00N 40°18' W 152°53'0 0.0 1038.5 15.1
2016-Jun-22 00:00N 40°18' W 152°53'0 0.0 1038.7 15.1
2016-Jun-21 23:00N 40°18' W 152°53'1 0.6 1038.8 15.0
2016-Jun-21 21:00N 40°16' W 152°53'0 0.2 1038.9 14.7
2016-Jun-21 19:00N 40°16' W 152°53'0 0.5 1038.8 14.4
2016-Jun-21 18:00N 40°16' W 152°53'1 0.7 1038.9 14.4
2016-Jun-21 17:00N 40°16' W 152°52'1 1.2 1038.8 14.3
2016-Jun-21 16:00N 40°16' W 152°50'0 0.0 1038.3 14.3
2016-Jun-21 15:00N 40°16' W 152°50'1 0.3 1038.0 14.3
2016-Jun-21 13:00N 40°17' W 152°50'0 0.0 1037.7 14.3
2016-Jun-21 11:00N 40°17' W 152°50'1 0.5 1037.3 14.3
2016-Jun-21 08:00N 40°18' W 152°51'0 0.1 1037.7 14.4
2016-Jun-21 07:00N 40°18' W 152°51'1 0.6 1037.6 14.4
2016-Jun-21 06:00N 40°18' W 152°51'1 0.7 1036.9 14.4
2016-Jun-21 05:00N 40°18' W 152°51'1 0.5 1036.7 14.5
2016-Jun-21 04:00N 40°17' W 152°52'1 0.7 1036.4 14.6
2016-Jun-21 03:00N 40°17' W 152°52'0 0.2 1036.2 14.6
2016-Jun-21 02:00N 40°17' W 152°52'1 0.9 1036.1 14.5
2016-Jun-21 01:00N 40°16' W 152°51'0 0.4 1036.3 14.5
2016-Jun-21 00:00N 40°16' W 152°50'1 1.5 1036.2 14.4
2016-Jun-20 23:00N 40°16' W 152°49'1 0.3 1036.3 14.4
2016-Jun-20 21:00N 40°16' W 152°48'1 0.6 1036.2 14.2
2016-Jun-20 19:00N 40°17' W 152°47'0 0.0 1035.7 14.1
2016-Jun-20 18:00N 40°17' W 152°47'0 0.0 1035.6 14.1
2016-Jun-20 17:00N 40°17' W 152°47'0 0.5 1035.2 14.0
2016-Jun-20 16:00N 40°18' W 152°48'1 0.5 1034.7 14.0
2016-Jun-20 15:00N 40°18' W 152°47'1 0.5 1034.3 14.0
2016-Jun-20 14:00N 40°18' W 152°48'0 0.4 1034.0 14.0
2016-Jun-20 13:00N 40°18' W 152°48'2 1.9 1033.6 14.0
2016-Jun-20 12:00N 40°17' W 152°50'2 2.1 1033.7 14.0
2016-Jun-20 11:00N 40°18' W 152°48'2 0.6 1033.4 14.0
2016-Jun-20 08:00N 40°17' W 152°50'1 0.7 1033.6 14.0
2016-Jun-20 07:00N 40°17' W 152°50'1 0.5 1033.3 14.0
2016-Jun-20 06:00N 40°16' W 152°50'1 1.1 1032.7 14.1
2016-Jun-20 05:00N 40°16' W 152°48'1 0.8 1032.3 14.1
2016-Jun-20 04:00N 40°16' W 152°47'1 0.8 1031.6 14.1
2016-Jun-20 03:00N 40°15' W 152°47'2 1.8 1031.7 14.1
2016-Jun-20 02:00N 40°17' W 152°45'0 0.0 1031.5 14.1
2016-Jun-20 01:00N 40°17' W 152°45'3 0.9 1031.4 14.1
2016-Jun-19 21:00N 40°20' W 152°45'1 1.0 1030.5 13.9
2016-Jun-19 20:00N 40°21' W 152°46'0 0.0 1030.4 13.8
2016-Jun-19 19:00N 40°21' W 152°46'1 0.4 1030.0 13.8
2016-Jun-19 17:00N 40°21' W 152°47'1 0.7 1029.3 13.7
2016-Jun-19 16:00N 40°21' W 152°48'1 0.5 1028.6 13.7
2016-Jun-19 14:00N 40°20' W 152°49'1 0.6 1027.3 13.6
2016-Jun-19 13:00N 40°20' W 152°49'2 1.5 1026.8 13.6
2016-Jun-19 12:00N 40°20' W 152°47'1 1.5 1026.7 13.6
2016-Jun-19 11:00N 40°20' W 152°49'3 1.0 1026.8 13.6
2016-Jun-19 08:00N 40°21' W 152°45'0 0.0 1026.5 13.6
2016-Jun-19 07:00N 40°21' W 152°45'0 0.1 1026.1 13.6
2016-Jun-19 06:00N 40°21' W 152°45'1 1.0 1025.3 13.6
2016-Jun-19 05:00N 40°22' W 152°45'2 1.9 1025.3 13.6
2016-Jun-19 04:00N 40°24' W 152°46'0 0.1 1024.6 13.6
2016-Jun-19 03:00N 40°24' W 152°46'1 1.1 1024.1 13.6
2016-Jun-19 02:00N 40°24' W 152°47'1 0.7 1024.0 13.6
2016-Jun-19 01:00N 40°25' W 152°48'1 0.8 1024.0 13.6
2016-Jun-19 00:00N 40°25' W 152°49'0 0.0 1023.8 13.6
2016-Jun-18 23:00N 40°25' W 152°49'0 0.0 1023.8 13.5
2016-Jun-18 22:00N 40°25' W 152°49'2 0.8 1023.7 13.4
2016-Jun-18 20:00N 40°25' W 152°51'0 0.2 1023.5 13.3
2016-Jun-18 18:00N 40°24' W 152°51'0 0.3 1023.1 13.2
2016-Jun-18 17:00N 40°24' W 152°51'0 0.1 1022.6 13.2
2016-Jun-18 16:00N 40°24' W 152°51'1 0.7 1022.1 13.2
2016-Jun-18 15:00N 40°24' W 152°50'0 0.1 1021.9 13.2
2016-Jun-18 14:00N 40°24' W 152°50'1 0.9 1021.5 13.2
2016-Jun-18 13:00N 40°25' W 152°49'4 4.2 1021.3 13.2
2016-Jun-18 12:00N 40°29' W 152°48'0 0.0 1021.4 13.3
2016-Jun-18 08:00N 40°29' W 152°48'1 1.4 1021.8 13.6
2016-Jun-18 07:00N 40°31' W 152°49'1 1.2 1021.5 13.6
2016-Jun-18 06:00N 40°31' W 152°50'1 0.9 1021.2 13.7
2016-Jun-18 05:00N 40°31' W 152°51'1 0.6 1021.2 13.7
2016-Jun-18 04:00N 40°31' W 152°52'1 0.5 1021.0 13.7
2016-Jun-18 03:00N 40°31' W 152°52'0 0.2 1021.4 13.8
2016-Jun-18 02:00N 40°31' W 152°52'0 0.0 1022.1 13.8
2016-Jun-18 01:00N 40°31' W 152°52'2 1.6 1023.0 13.8
2016-Jun-18 00:00N 40°31' W 152°54'0 0.3 1023.8 13.8
2016-Jun-17 23:00N 40°31' W 152°54'0 0.0 1024.6 13.8
2016-Jun-17 22:00N 40°31' W 152°54'0 0.4 1025.5 13.8
2016-Jun-17 21:00N 40°31' W 152°54'1 0.9 1026.3 13.7
2016-Jun-17 20:00N 40°32' W 152°54'1 1.5 1026.9 13.7
2016-Jun-17 19:00N 40°34' W 152°55'1 0.4 1027.6 13.7
2016-Jun-17 17:00N 40°34' W 152°56'0 0.1 1027.7 13.6
2016-Jun-17 16:00N 40°34' W 152°56'1 0.8 1028.2 13.6
2016-Jun-17 15:00N 40°34' W 152°57'0 0.4 1028.2 13.6
2016-Jun-17 14:00N 40°35' W 152°57'1 1.2 1028.3 13.6
2016-Jun-17 13:00N 40°35' W 152°59'2 1.7 1028.6 13.7
2016-Jun-17 12:00N 40°34' W 153°00'0 0.0 1029.0 13.7
2016-Jun-17 08:00N 40°33' W 153°00'1 0.7 1030.4 13.8
2016-Jun-17 07:00N 40°34' W 152°60'0 0.0 1030.7 13.8
2016-Jun-17 06:00N 40°34' W 152°60'1 1.4 1030.5 13.8
2016-Jun-17 05:00N 40°34' W 152°58'1 0.5 1030.5 13.8
2016-Jun-17 04:00N 40°34' W 152°57'1 0.5 1030.2 13.8
2016-Jun-17 03:00N 40°34' W 152°58'1 1.4 1030.1 13.8
2016-Jun-17 02:00N 40°36' W 152°58'1 0.9 1030.1 13.8
2016-Jun-17 01:00N 40°36' W 152°57'0 0.1 1030.3 13.8
2016-Jun-17 00:00N 40°36' W 152°58'2 0.8 1030.4 13.7
2016-Jun-16 22:00N 40°38' W 152°59'0 0.0 1030.4 13.7
2016-Jun-16 21:00N 40°38' W 152°59'2 0.5 1030.5 13.6
2016-Jun-16 17:00N 40°38' W 153°01'0 0.4 1030.5 13.5
2016-Jun-16 16:00N 40°38' W 153°02'0 0.2 1030.0 13.5
2016-Jun-16 14:00N 40°38' W 153°01'2 1.8 1029.8 13.5
2016-Jun-16 13:00N 40°40' W 153°02'0 0.0 1030.0 13.4
2016-Jun-16 08:00N 40°40' W 153°02'0 0.5 1031.4 13.4
2016-Jun-16 07:00N 40°41' W 153°02'1 0.5 1031.2 13.5
2016-Jun-16 06:00N 40°41' W 153°02'0 0.3 1031.5 13.5
2016-Jun-16 05:00N 40°41' W 153°02'0 0.3 1031.1 13.5
2016-Jun-16 04:00N 40°41' W 153°03'0 0.0 1031.0 13.5
2016-Jun-16 03:00N 40°41' W 153°03'1 0.6 1031.1 13.5
2016-Jun-16 01:00N 40°41' W 153°04'0 0.0 1031.5 13.5
2016-Jun-16 00:00N 40°41' W 153°04'1 0.7 1031.8 13.5
2016-Jun-15 23:00N 40°42' W 153°05'0 0.2 1032.1 13.4
2016-Jun-15 22:00N 40°42' W 153°05'0 0.1 1032.1 13.4
2016-Jun-15 20:00N 40°42' W 153°05'0 0.2 1032.2 13.4
2016-Jun-15 18:00N 40°42' W 153°05'1 0.5 1031.9 13.3
2016-Jun-15 17:00N 40°43' W 153°05'1 0.7 1031.6 13.3
2016-Jun-15 16:00N 40°44' W 153°05'1 0.5 1031.4 13.3
2016-Jun-15 15:00N 40°44' W 153°04'0 0.0 1031.3 13.3
2016-Jun-15 14:00N 40°44' W 153°04'3 0.5 1031.3 13.3
2016-Jun-15 08:00N 40°45' W 153°07'0 0.2 1032.6 13.4
2016-Jun-15 06:00N 40°46' W 153°07'0 0.2 1032.2 13.5
2016-Jun-15 05:00N 40°46' W 153°07'0 0.4 1032.3 13.5
2016-Jun-15 04:00N 40°46' W 153°07'0 0.4 1032.5 13.5
2016-Jun-15 03:00N 40°47' W 153°07'0 0.4 1032.6 13.5
2016-Jun-15 02:00N 40°47' W 153°08'0 0.4 1032.8 13.6
2016-Jun-15 01:00N 40°47' W 153°08'   1033.2 13.6

Dump ship's entire track history